sensor_id;sensor_type;location;lat;lon;timestamp;pressure;altitude;pressure_sealevel;temperature
8362;BMP180;4218;48.326;14.304;2022-12-07T06:22:47;98199.00;;;2.90
8362;BMP180;4218;48.326;14.304;2022-12-07T06:25:13;98199.00;;;2.80
8362;BMP180;4218;48.326;14.304;2022-12-07T06:27:38;98190.00;;;2.80
8362;BMP180;4218;48.326;14.304;2022-12-07T06:30:04;98199.00;;;3.00
8362;BMP180;4218;48.326;14.304;2022-12-07T06:32:33;98211.00;;;3.10
8362;BMP180;4218;48.326;14.304;2022-12-07T06:34:59;98218.00;;;3.00
8362;BMP180;4218;48.326;14.304;2022-12-07T06:37:25;98206.00;;;2.90
8362;BMP180;4218;48.326;14.304;2022-12-07T06:39:50;98203.00;;;3.00
8362;BMP180;4218;48.326;14.304;2022-12-07T06:42:15;98208.00;;;3.00
8362;BMP180;4218;48.326;14.304;2022-12-07T06:44:41;98222.00;;;3.10
8362;BMP180;4218;48.326;14.304;2022-12-07T06:47:06;98213.00;;;3.20
8362;BMP180;4218;48.326;14.304;2022-12-07T06:49:33;98218.00;;;3.20
8362;BMP180;4218;48.326;14.304;2022-12-07T06:51:58;98199.00;;;3.10
8362;BMP180;4218;48.326;14.304;2022-12-07T06:54:23;98203.00;;;3.10
8362;BMP180;4218;48.326;14.304;2022-12-07T06:56:49;98222.00;;;3.10
8362;BMP180;4218;48.326;14.304;2022-12-07T06:59:14;98226.00;;;3.10
8362;BMP180;4218;48.326;14.304;2022-12-07T07:01:39;98217.00;;;3.10
8362;BMP180;4218;48.326;14.304;2022-12-07T07:04:05;98221.00;;;3.20
8362;BMP180;4218;48.326;14.304;2022-12-07T07:06:31;98228.00;;;3.30
8362;BMP180;4218;48.326;14.304;2022-12-07T07:08:56;98212.00;;;3.40
8362;BMP180;4218;48.326;14.304;2022-12-07T07:11:22;98215.00;;;3.30
8362;BMP180;4218;48.326;14.304;2022-12-07T07:13:47;98219.00;;;3.30
8362;BMP180;4218;48.326;14.304;2022-12-07T07:16:13;98234.00;;;3.20
8362;BMP180;4218;48.326;14.304;2022-12-07T07:18:38;98224.00;;;3.10
8362;BMP180;4218;48.326;14.304;2022-12-07T07:21:04;98236.00;;;3.10
8362;BMP180;4218;48.326;14.304;2022-12-07T07:23:29;98241.00;;;3.10
8362;BMP180;4218;48.326;14.304;2022-12-07T07:25:55;98239.00;;;3.20
8362;BMP180;4218;48.326;14.304;2022-12-07T07:28:20;98224.00;;;3.20
8362;BMP180;4218;48.326;14.304;2022-12-07T07:30:46;98245.00;;;3.20
8362;BMP180;4218;48.326;14.304;2022-12-07T07:33:11;98235.00;;;3.20
8362;BMP180;4218;48.326;14.304;2022-12-07T07:35:37;98249.00;;;3.20
8362;BMP180;4218;48.326;14.304;2022-12-07T07:38:04;98239.00;;;3.20
8362;BMP180;4218;48.326;14.304;2022-12-07T07:40:30;98252.00;;;3.20
8362;BMP180;4218;48.326;14.304;2022-12-07T07:42:56;98252.00;;;3.20
8362;BMP180;4218;48.326;14.304;2022-12-07T07:45:23;98267.00;;;3.30
8362;BMP180;4218;48.326;14.304;2022-12-07T07:47:49;98255.00;;;3.20
8362;BMP180;4218;48.326;14.304;2022-12-07T07:50:15;98260.00;;;3.30
8362;BMP180;4218;48.326;14.304;2022-12-07T07:52:41;98253.00;;;3.20
8362;BMP180;4218;48.326;14.304;2022-12-07T07:55:07;98260.00;;;3.40
8362;BMP180;4218;48.326;14.304;2022-12-07T07:57:37;98260.00;;;3.40
8362;BMP180;4218;48.326;14.304;2022-12-07T08:00:08;98255.00;;;3.40
8362;BMP180;4218;48.326;14.304;2022-12-07T08:02:34;98257.00;;;3.40
8362;BMP180;4218;48.326;14.304;2022-12-07T08:04:59;98274.00;;;3.50
8362;BMP180;4218;48.326;14.304;2022-12-07T08:07:27;98264.00;;;3.50
8362;BMP180;4218;48.326;14.304;2022-12-07T08:09:54;98265.00;;;3.60
8362;BMP180;4218;48.326;14.304;2022-12-07T08:12:19;98282.00;;;3.70
8362;BMP180;4218;48.326;14.304;2022-12-07T08:14:45;98272.00;;;3.70
8362;BMP180;4218;48.326;14.304;2022-12-07T08:17:10;98278.00;;;3.60
8362;BMP180;4218;48.326;14.304;2022-12-07T08:19:36;98279.00;;;3.60
8362;BMP180;4218;48.326;14.304;2022-12-07T08:22:02;98280.00;;;3.40
8362;BMP180;4218;48.326;14.304;2022-12-07T08:24:28;98274.00;;;3.60
8362;BMP180;4218;48.326;14.304;2022-12-07T08:26:54;98280.00;;;3.60
8362;BMP180;4218;48.326;14.304;2022-12-07T08:29:19;98271.00;;;3.60
8362;BMP180;4218;48.326;14.304;2022-12-07T08:31:46;98292.00;;;3.50
8362;BMP180;4218;48.326;14.304;2022-12-07T08:34:11;98275.00;;;3.50
8362;BMP180;4218;48.326;14.304;2022-12-07T08:36:37;98270.00;;;3.50
8362;BMP180;4218;48.326;14.304;2022-12-07T08:39:02;98268.00;;;3.60
8362;BMP180;4218;48.326;14.304;2022-12-07T08:41:28;98272.00;;;3.50
8362;BMP180;4218;48.326;14.304;2022-12-07T08:43:54;98263.00;;;3.50
8362;BMP180;4218;48.326;14.304;2022-12-07T08:46:31;98281.00;;;3.60
8362;BMP180;4218;48.326;14.304;2022-12-07T08:51:35;98265.00;;;3.60
8362;BMP180;4218;48.326;14.304;2022-12-07T08:54:04;98286.00;;;3.70
8362;BMP180;4218;48.326;14.304;2022-12-07T08:56:30;98286.00;;;3.70
8362;BMP180;4218;48.326;14.304;2022-12-07T08:58:57;98295.00;;;3.70
8362;BMP180;4218;48.326;14.304;2022-12-07T09:01:22;98296.00;;;3.70
8362;BMP180;4218;48.326;14.304;2022-12-07T09:03:48;98296.00;;;3.60
8362;BMP180;4218;48.326;14.304;2022-12-07T09:06:13;98304.00;;;3.40
8362;BMP180;4218;48.326;14.304;2022-12-07T09:08:42;98304.00;;;3.30
8362;BMP180;4218;48.326;14.304;2022-12-07T09:11:08;98314.00;;;3.40
8362;BMP180;4218;48.326;14.304;2022-12-07T09:13:33;98302.00;;;3.80
8362;BMP180;4218;48.326;14.304;2022-12-07T09:15:59;98309.00;;;4.10
8362;BMP180;4218;48.326;14.304;2022-12-07T09:18:24;98312.00;;;4.30
8362;BMP180;4218;48.326;14.304;2022-12-07T09:20:50;98316.00;;;4.00
8362;BMP180;4218;48.326;14.304;2022-12-07T09:23:15;98316.00;;;3.90
8362;BMP180;4218;48.326;14.304;2022-12-07T09:25:41;98318.00;;;3.90
8362;BMP180;4218;48.326;14.304;2022-12-07T09:28:06;98310.00;;;3.90
8362;BMP180;4218;48.326;14.304;2022-12-07T09:30:31;98304.00;;;3.80
8362;BMP180;4218;48.326;14.304;2022-12-07T09:32:57;98306.00;;;3.80
8362;BMP180;4218;48.326;14.304;2022-12-07T09:35:24;98299.00;;;3.90
8362;BMP180;4218;48.326;14.304;2022-12-07T09:37:49;98311.00;;;4.00
8362;BMP180;4218;48.326;14.304;2022-12-07T09:40:16;98299.00;;;4.00
8362;BMP180;4218;48.326;14.304;2022-12-07T09:42:44;98305.00;;;4.00
8362;BMP180;4218;48.326;14.304;2022-12-07T09:45:15;98291.00;;;3.90
8362;BMP180;4218;48.326;14.304;2022-12-07T09:47:42;98303.00;;;4.00
8362;BMP180;4218;48.326;14.304;2022-12-07T09:50:14;98297.00;;;3.90
8362;BMP180;4218;48.326;14.304;2022-12-07T09:52:40;98305.00;;;3.90
8362;BMP180;4218;48.326;14.304;2022-12-07T09:55:11;98300.00;;;4.00
8362;BMP180;4218;48.326;14.304;2022-12-07T09:57:37;98294.00;;;4.00
8362;BMP180;4218;48.326;14.304;2022-12-07T10:00:07;98281.00;;;3.90
8362;BMP180;4218;48.326;14.304;2022-12-07T10:02:41;98274.00;;;3.90
8362;BMP180;4218;48.326;14.304;2022-12-07T10:05:12;98290.00;;;3.80
8362;BMP180;4218;48.326;14.304;2022-12-07T10:07:38;98271.00;;;3.80
8362;BMP180;4218;48.326;14.304;2022-12-07T10:10:14;98270.00;;;3.70
8362;BMP180;4218;48.326;14.304;2022-12-07T10:12:54;98271.00;;;3.70
8362;BMP180;4218;48.326;14.304;2022-12-07T10:15:20;98265.00;;;3.70
8362;BMP180;4218;48.326;14.304;2022-12-07T10:17:50;98253.00;;;3.80
8362;BMP180;4218;48.326;14.304;2022-12-07T10:20:23;98262.00;;;3.70
8362;BMP180;4218;48.326;14.304;2022-12-07T10:23:02;98257.00;;;3.60
8362;BMP180;4218;48.326;14.304;2022-12-07T10:25:37;98253.00;;;3.60
8362;BMP180;4218;48.326;14.304;2022-12-07T10:30:33;98252.00;;;3.50
8362;BMP180;4218;48.326;14.304;2022-12-07T10:32:59;98232.00;;;3.50
8362;BMP180;4218;48.326;14.304;2022-12-07T10:35:29;98249.00;;;3.40
8362;BMP180;4218;48.326;14.304;2022-12-07T10:37:57;98244.00;;;3.40
8362;BMP180;4218;48.326;14.304;2022-12-07T10:40:34;98251.00;;;3.40
8362;BMP180;4218;48.326;14.304;2022-12-07T10:45:26;98244.00;;;3.60
8362;BMP180;4218;48.326;14.304;2022-12-07T10:48:18;98244.00;;;3.50
8362;BMP180;4218;48.326;14.304;2022-12-07T10:51:05;98261.00;;;3.40
8362;BMP180;4218;48.326;14.304;2022-12-07T10:56:47;98262.00;;;3.80
8362;BMP180;4218;48.326;14.304;2022-12-07T11:02:43;98251.00;;;3.80
8362;BMP180;4218;48.326;14.304;2022-12-07T11:13:29;98255.00;;;4.40
8362;BMP180;4218;48.326;14.304;2022-12-07T11:21:28;98241.00;;;4.90
8362;BMP180;4218;48.326;14.304;2022-12-07T11:24:15;98236.00;;;4.80
8362;BMP180;4218;48.326;14.304;2022-12-07T11:29:42;98238.00;;;5.00
8362;BMP180;4218;48.326;14.304;2022-12-07T11:35:24;98228.00;;;5.00
8362;BMP180;4218;48.326;14.304;2022-12-07T11:38:00;98232.00;;;4.80
8362;BMP180;4218;48.326;14.304;2022-12-07T11:40:30;98229.00;;;4.90
8362;BMP180;4218;48.326;14.304;2022-12-07T11:43:04;98221.00;;;4.90
8362;BMP180;4218;48.326;14.304;2022-12-07T11:45:35;98216.00;;;5.10
8362;BMP180;4218;48.326;14.304;2022-12-07T11:48:09;98215.00;;;5.00
8362;BMP180;4218;48.326;14.304;2022-12-07T11:55:53;98204.00;;;5.00
8362;BMP180;4218;48.326;14.304;2022-12-07T12:03:53;98211.00;;;4.80
8362;BMP180;4218;48.326;14.304;2022-12-07T12:06:20;98203.00;;;4.60
8362;BMP180;4218;48.326;14.304;2022-12-07T12:09:04;98197.00;;;4.60
8362;BMP180;4218;48.326;14.304;2022-12-07T12:11:38;98194.00;;;4.70
8362;BMP180;4218;48.326;14.304;2022-12-07T12:25:35;98196.00;;;4.70
8362;BMP180;4218;48.326;14.304;2022-12-07T12:28:01;98196.00;;;4.70
8362;BMP180;4218;48.326;14.304;2022-12-07T12:30:36;98183.00;;;4.70
8362;BMP180;4218;48.326;14.304;2022-12-07T12:33:26;98165.00;;;4.60
8362;BMP180;4218;48.326;14.304;2022-12-07T13:18:46;98208.00;;;13.00
8362;BMP180;4218;48.326;14.304;2022-12-07T13:31:37;98209.00;;;20.40
8362;BMP180;4218;48.326;14.304;2022-12-07T13:34:26;98214.00;;;20.90
8362;BMP180;4218;48.326;14.304;2022-12-07T13:36:51;98220.00;;;21.30
8362;BMP180;4218;48.326;14.304;2022-12-07T13:39:19;98209.00;;;21.60
8362;BMP180;4218;48.326;14.304;2022-12-07T13:41:49;98224.00;;;21.90
8362;BMP180;4218;48.326;14.304;2022-12-07T13:44:17;98214.00;;;22.20
8362;BMP180;4218;48.326;14.304;2022-12-07T13:49:22;98218.00;;;22.60
8362;BMP180;4218;48.326;14.304;2022-12-07T13:51:48;98216.00;;;22.80
8362;BMP180;4218;48.326;14.304;2022-12-07T13:54:14;98210.00;;;22.90
8362;BMP180;4218;48.326;14.304;2022-12-07T13:56:40;98214.00;;;23.00
8362;BMP180;4218;48.326;14.304;2022-12-07T13:59:22;98205.00;;;23.20
8362;BMP180;4218;48.326;14.304;2022-12-07T14:01:50;98217.00;;;23.30
8362;BMP180;4218;48.326;14.304;2022-12-07T14:04:28;98215.00;;;23.40
8362;BMP180;4218;48.326;14.304;2022-12-07T14:06:54;98217.00;;;23.50
8362;BMP180;4218;48.326;14.304;2022-12-07T14:09:25;98224.00;;;23.70
8362;BMP180;4218;48.326;14.304;2022-12-07T14:11:53;98225.00;;;23.70
8362;BMP180;4218;48.326;14.304;2022-12-07T14:14:30;98227.00;;;23.70
8362;BMP180;4218;48.326;14.304;2022-12-07T14:17:02;98233.00;;;23.70
8362;BMP180;4218;48.326;14.304;2022-12-07T14:19:48;98232.00;;;23.60
8362;BMP180;4218;48.326;14.304;2022-12-07T14:24:50;98249.00;;;23.60
8362;BMP180;4218;48.326;14.304;2022-12-07T14:27:21;98232.00;;;23.60
8362;BMP180;4218;48.326;14.304;2022-12-07T14:29:47;98242.00;;;23.60
8362;BMP180;4218;48.326;14.304;2022-12-07T14:32:24;98239.00;;;23.60
8362;BMP180;4218;48.326;14.304;2022-12-07T14:35:02;98237.00;;;23.60
8362;BMP180;4218;48.326;14.304;2022-12-07T14:37:29;98240.00;;;23.60
8362;BMP180;4218;48.326;14.304;2022-12-07T14:39:55;98229.00;;;23.60
8362;BMP180;4218;48.326;14.304;2022-12-07T14:42:22;98246.00;;;23.50
8362;BMP180;4218;48.326;14.304;2022-12-07T14:44:48;98239.00;;;23.50
8362;BMP180;4218;48.326;14.304;2022-12-07T14:47:14;98229.00;;;23.50
8362;BMP180;4218;48.326;14.304;2022-12-07T14:49:40;98230.00;;;23.60
8362;BMP180;4218;48.326;14.304;2022-12-07T14:52:06;98230.00;;;23.50
8362;BMP180;4218;48.326;14.304;2022-12-07T14:54:35;98236.00;;;23.50
8362;BMP180;4218;48.326;14.304;2022-12-07T14:57:01;98239.00;;;23.50
8362;BMP180;4218;48.326;14.304;2022-12-07T14:59:27;98245.00;;;23.50
8362;BMP180;4218;48.326;14.304;2022-12-07T15:01:52;98245.00;;;23.50
8362;BMP180;4218;48.326;14.304;2022-12-07T15:04:17;98237.00;;;23.50
8362;BMP180;4218;48.326;14.304;2022-12-07T15:06:55;98240.00;;;23.50
8362;BMP180;4218;48.326;14.304;2022-12-07T15:09:20;98239.00;;;23.50
8362;BMP180;4218;48.326;14.304;2022-12-07T15:11:45;98234.00;;;23.50
8362;BMP180;4218;48.326;14.304;2022-12-07T15:14:11;98230.00;;;23.50
8362;BMP180;4218;48.326;14.304;2022-12-07T15:16:39;98236.00;;;23.50
8362;BMP180;4218;48.326;14.304;2022-12-07T15:19:05;98233.00;;;23.50
8362;BMP180;4218;48.326;14.304;2022-12-07T15:21:31;98229.00;;;23.50
8362;BMP180;4218;48.326;14.304;2022-12-07T15:23:56;98236.00;;;23.50
8362;BMP180;4218;48.326;14.304;2022-12-07T15:26:22;98226.00;;;23.50
8362;BMP180;4218;48.326;14.304;2022-12-07T15:28:47;98229.00;;;23.50
8362;BMP180;4218;48.326;14.304;2022-12-07T15:31:14;98223.00;;;23.50
8362;BMP180;4218;48.326;14.304;2022-12-07T15:33:40;98225.00;;;23.50
8362;BMP180;4218;48.326;14.304;2022-12-07T15:36:06;98225.00;;;23.50
8362;BMP180;4218;48.326;14.304;2022-12-07T15:38:31;98226.00;;;23.50
8362;BMP180;4218;48.326;14.304;2022-12-07T15:40:56;98231.00;;;23.50
8362;BMP180;4218;48.326;14.304;2022-12-07T15:43:22;98230.00;;;23.50
8362;BMP180;4218;48.326;14.304;2022-12-07T15:46:06;98238.00;;;23.50
8362;BMP180;4218;48.326;14.304;2022-12-07T15:48:31;98235.00;;;23.50
8362;BMP180;4218;48.326;14.304;2022-12-07T15:51:07;98232.00;;;23.50
8362;BMP180;4218;48.326;14.304;2022-12-07T15:53:34;98232.00;;;23.50
8362;BMP180;4218;48.326;14.304;2022-12-07T15:56:00;98229.00;;;23.50
8362;BMP180;4218;48.326;14.304;2022-12-07T15:58:25;98231.00;;;23.50
8362;BMP180;4218;48.326;14.304;2022-12-07T16:00:51;98233.00;;;23.50
8362;BMP180;4218;48.326;14.304;2022-12-07T16:03:16;98242.00;;;23.50
8362;BMP180;4218;48.326;14.304;2022-12-07T16:05:41;98239.00;;;23.50
8362;BMP180;4218;48.326;14.304;2022-12-07T16:08:07;98243.00;;;23.50
8362;BMP180;4218;48.326;14.304;2022-12-07T16:10:32;98235.00;;;23.50
8362;BMP180;4218;48.326;14.304;2022-12-07T16:12:58;98243.00;;;23.50
8362;BMP180;4218;48.326;14.304;2022-12-07T16:15:23;98244.00;;;23.40
8362;BMP180;4218;48.326;14.304;2022-12-07T16:17:51;98246.00;;;23.40
8362;BMP180;4218;48.326;14.304;2022-12-07T16:20:16;98233.00;;;23.40
8362;BMP180;4218;48.326;14.304;2022-12-07T16:22:41;98238.00;;;23.40
8362;BMP180;4218;48.326;14.304;2022-12-07T16:25:07;98238.00;;;23.40
8362;BMP180;4218;48.326;14.304;2022-12-07T16:27:34;98236.00;;;23.40
8362;BMP180;4218;48.326;14.304;2022-12-07T16:29:59;98235.00;;;23.40
8362;BMP180;4218;48.326;14.304;2022-12-07T16:32:24;98230.00;;;23.40
8362;BMP180;4218;48.326;14.304;2022-12-07T16:34:49;98239.00;;;23.40
8362;BMP180;4218;48.326;14.304;2022-12-07T16:37:15;98235.00;;;23.30
8362;BMP180;4218;48.326;14.304;2022-12-07T16:39:40;98237.00;;;23.30
8362;BMP180;4218;48.326;14.304;2022-12-07T16:42:06;98233.00;;;23.30
8362;BMP180;4218;48.326;14.304;2022-12-07T16:44:31;98231.00;;;23.30
8362;BMP180;4218;48.326;14.304;2022-12-07T16:46:56;98234.00;;;23.30
8362;BMP180;4218;48.326;14.304;2022-12-07T16:49:22;98235.00;;;23.30
8362;BMP180;4218;48.326;14.304;2022-12-07T16:51:50;98237.00;;;23.30
8362;BMP180;4218;48.326;14.304;2022-12-07T16:54:15;98230.00;;;23.30
8362;BMP180;4218;48.326;14.304;2022-12-07T16:56:41;98229.00;;;23.30
8362;BMP180;4218;48.326;14.304;2022-12-07T16:59:07;98233.00;;;23.30
8362;BMP180;4218;48.326;14.304;2022-12-07T17:01:32;98235.00;;;23.30
8362;BMP180;4218;48.326;14.304;2022-12-07T17:03:59;98236.00;;;23.30
8362;BMP180;4218;48.326;14.304;2022-12-07T17:06:27;98237.00;;;23.30
8362;BMP180;4218;48.326;14.304;2022-12-07T17:08:52;98246.00;;;22.80
8362;BMP180;4218;48.326;14.304;2022-12-07T17:11:29;98237.00;;;22.40
8362;BMP180;4218;48.326;14.304;2022-12-07T17:13:57;98242.00;;;22.20
8362;BMP180;4218;48.326;14.304;2022-12-07T17:16:41;98240.00;;;22.10
8362;BMP180;4218;48.326;14.304;2022-12-07T17:19:09;98246.00;;;22.00
8362;BMP180;4218;48.326;14.304;2022-12-07T17:21:35;98248.00;;;22.00
8362;BMP180;4218;48.326;14.304;2022-12-07T17:24:01;98253.00;;;21.90
8362;BMP180;4218;48.326;14.304;2022-12-07T17:26:28;98254.00;;;21.90
8362;BMP180;4218;48.326;14.304;2022-12-07T17:28:55;98249.00;;;21.90
8362;BMP180;4218;48.326;14.304;2022-12-07T17:31:22;98248.00;;;21.80
8362;BMP180;4218;48.326;14.304;2022-12-07T17:33:48;98247.00;;;21.80
8362;BMP180;4218;48.326;14.304;2022-12-07T17:36:15;98241.00;;;21.80
8362;BMP180;4218;48.326;14.304;2022-12-07T17:38:40;98244.00;;;21.80
8362;BMP180;4218;48.326;14.304;2022-12-07T17:41:14;98248.00;;;21.80
8362;BMP180;4218;48.326;14.304;2022-12-07T17:44:00;98245.00;;;21.80
8362;BMP180;4218;48.326;14.304;2022-12-07T17:46:25;98240.00;;;21.80
8362;BMP180;4218;48.326;14.304;2022-12-07T17:48:53;98238.00;;;21.80
8362;BMP180;4218;48.326;14.304;2022-12-07T17:51:19;98241.00;;;21.80
8362;BMP180;4218;48.326;14.304;2022-12-07T17:54:03;98238.00;;;21.80
8362;BMP180;4218;48.326;14.304;2022-12-07T17:56:28;98241.00;;;21.80
8362;BMP180;4218;48.326;14.304;2022-12-07T17:58:53;98238.00;;;21.80
8362;BMP180;4218;48.326;14.304;2022-12-07T18:01:19;98237.00;;;21.80
8362;BMP180;4218;48.326;14.304;2022-12-07T18:03:44;98237.00;;;21.80
8362;BMP180;4218;48.326;14.304;2022-12-07T18:06:09;98230.00;;;21.80
8362;BMP180;4218;48.326;14.304;2022-12-07T18:08:35;98228.00;;;21.80
8362;BMP180;4218;48.326;14.304;2022-12-07T18:11:03;98233.00;;;21.80
8362;BMP180;4218;48.326;14.304;2022-12-07T18:13:29;98232.00;;;21.80
8362;BMP180;4218;48.326;14.304;2022-12-07T18:16:22;98230.00;;;21.80
8362;BMP180;4218;48.326;14.304;2022-12-07T18:18:48;98223.00;;;21.80
8362;BMP180;4218;48.326;14.304;2022-12-07T18:21:16;98230.00;;;21.80
8362;BMP180;4218;48.326;14.304;2022-12-07T18:23:44;98233.00;;;21.80
8362;BMP180;4218;48.326;14.304;2022-12-07T18:26:10;98228.00;;;21.80
8362;BMP180;4218;48.326;14.304;2022-12-07T18:28:38;98217.00;;;21.80
8362;BMP180;4218;48.326;14.304;2022-12-07T18:31:03;98229.00;;;21.80
8362;BMP180;4218;48.326;14.304;2022-12-07T18:33:29;98225.00;;;21.80
8362;BMP180;4218;48.326;14.304;2022-12-07T18:35:54;98228.00;;;21.80
8362;BMP180;4218;48.326;14.304;2022-12-07T18:38:19;98233.00;;;21.80
8362;BMP180;4218;48.326;14.304;2022-12-07T18:40:45;98232.00;;;21.70
8362;BMP180;4218;48.326;14.304;2022-12-07T18:43:10;98238.00;;;21.70
8362;BMP180;4218;48.326;14.304;2022-12-07T18:45:40;98236.00;;;21.70
8362;BMP180;4218;48.326;14.304;2022-12-07T18:48:08;98239.00;;;21.80
8362;BMP180;4218;48.326;14.304;2022-12-07T18:50:35;98232.00;;;21.70
8362;BMP180;4218;48.326;14.304;2022-12-07T18:53:01;98234.00;;;21.80
8362;BMP180;4218;48.326;14.304;2022-12-07T18:55:28;98229.00;;;21.80
8362;BMP180;4218;48.326;14.304;2022-12-07T18:57:55;98238.00;;;21.80
8362;BMP180;4218;48.326;14.304;2022-12-07T19:00:21;98240.00;;;21.70
8362;BMP180;4218;48.326;14.304;2022-12-07T19:02:48;98235.00;;;21.70
8362;BMP180;4218;48.326;14.304;2022-12-07T19:05:14;98238.00;;;21.70
8362;BMP180;4218;48.326;14.304;2022-12-07T19:07:39;98237.00;;;21.70
8362;BMP180;4218;48.326;14.304;2022-12-07T19:10:05;98235.00;;;21.70
8362;BMP180;4218;48.326;14.304;2022-12-07T19:12:32;98236.00;;;21.70
8362;BMP180;4218;48.326;14.304;2022-12-07T19:14:58;98241.00;;;21.70
8362;BMP180;4218;48.326;14.304;2022-12-07T19:17:23;98240.00;;;21.70
8362;BMP180;4218;48.326;14.304;2022-12-07T19:19:49;98235.00;;;21.70
8362;BMP180;4218;48.326;14.304;2022-12-07T19:22:19;98237.00;;;21.70
8362;BMP180;4218;48.326;14.304;2022-12-07T19:24:47;98236.00;;;21.70
8362;BMP180;4218;48.326;14.304;2022-12-07T19:27:14;98244.00;;;21.70
8362;BMP180;4218;48.326;14.304;2022-12-07T19:29:41;98239.00;;;21.70
8362;BMP180;4218;48.326;14.304;2022-12-07T19:32:06;98237.00;;;21.70
8362;BMP180;4218;48.326;14.304;2022-12-07T19:34:36;98239.00;;;21.70
8362;BMP180;4218;48.326;14.304;2022-12-07T19:37:02;98240.00;;;21.70
8362;BMP180;4218;48.326;14.304;2022-12-07T19:39:27;98239.00;;;21.70
8362;BMP180;4218;48.326;14.304;2022-12-07T19:41:54;98236.00;;;21.80
8362;BMP180;4218;48.326;14.304;2022-12-07T19:44:21;98243.00;;;21.70
8362;BMP180;4218;48.326;14.304;2022-12-07T19:46:50;98240.00;;;21.70
8362;BMP180;4218;48.326;14.304;2022-12-07T19:49:17;98238.00;;;21.70
8362;BMP180;4218;48.326;14.304;2022-12-07T19:51:44;98238.00;;;21.80
8362;BMP180;4218;48.326;14.304;2022-12-07T19:54:10;98242.00;;;21.70
8362;BMP180;4218;48.326;14.304;2022-12-07T19:56:36;98241.00;;;21.70
8362;BMP180;4218;48.326;14.304;2022-12-07T19:59:02;98236.00;;;21.70
8362;BMP180;4218;48.326;14.304;2022-12-07T20:01:28;98241.00;;;21.70
8362;BMP180;4218;48.326;14.304;2022-12-07T20:03:54;98234.00;;;21.70
8362;BMP180;4218;48.326;14.304;2022-12-07T20:06:20;98236.00;;;21.70
8362;BMP180;4218;48.326;14.304;2022-12-07T20:08:46;98233.00;;;21.70
8362;BMP180;4218;48.326;14.304;2022-12-07T20:11:13;98232.00;;;21.70
8362;BMP180;4218;48.326;14.304;2022-12-07T20:13:58;98225.00;;;21.70
8362;BMP180;4218;48.326;14.304;2022-12-07T20:16:23;98222.00;;;21.70
8362;BMP180;4218;48.326;14.304;2022-12-07T20:18:49;98231.00;;;21.70
8362;BMP180;4218;48.326;14.304;2022-12-07T20:21:15;98235.00;;;21.70
8362;BMP180;4218;48.326;14.304;2022-12-07T20:23:41;98224.00;;;21.70
8362;BMP180;4218;48.326;14.304;2022-12-07T20:26:08;98223.00;;;21.70
8362;BMP180;4218;48.326;14.304;2022-12-07T20:28:34;98223.00;;;21.70
8362;BMP180;4218;48.326;14.304;2022-12-07T20:30:59;98219.00;;;21.70
8362;BMP180;4218;48.326;14.304;2022-12-07T20:33:25;98215.00;;;21.70
8362;BMP180;4218;48.326;14.304;2022-12-07T20:35:50;98220.00;;;21.70
8362;BMP180;4218;48.326;14.304;2022-12-07T20:38:16;98219.00;;;21.70
8362;BMP180;4218;48.326;14.304;2022-12-07T20:40:48;98213.00;;;21.70
8362;BMP180;4218;48.326;14.304;2022-12-07T20:43:15;98205.00;;;21.70
8362;BMP180;4218;48.326;14.304;2022-12-07T20:45:44;98210.00;;;21.70
8362;BMP180;4218;48.326;14.304;2022-12-07T20:48:10;98204.00;;;21.70
8362;BMP180;4218;48.326;14.304;2022-12-07T20:50:35;98199.00;;;21.70
8362;BMP180;4218;48.326;14.304;2022-12-07T20:53:01;98209.00;;;21.70
8362;BMP180;4218;48.326;14.304;2022-12-07T20:55:26;98201.00;;;21.70
8362;BMP180;4218;48.326;14.304;2022-12-07T20:57:51;98203.00;;;21.70
8362;BMP180;4218;48.326;14.304;2022-12-07T21:00:17;98207.00;;;21.70
8362;BMP180;4218;48.326;14.304;2022-12-07T21:02:43;98213.00;;;21.70
8362;BMP180;4218;48.326;14.304;2022-12-07T21:05:08;98206.00;;;21.70
8362;BMP180;4218;48.326;14.304;2022-12-07T21:07:33;98198.00;;;21.70
8362;BMP180;4218;48.326;14.304;2022-12-07T21:10:00;98207.00;;;21.70
8362;BMP180;4218;48.326;14.304;2022-12-07T21:12:27;98201.00;;;21.70
8362;BMP180;4218;48.326;14.304;2022-12-07T21:14:53;98202.00;;;21.70
8362;BMP180;4218;48.326;14.304;2022-12-07T21:17:18;98198.00;;;21.70
8362;BMP180;4218;48.326;14.304;2022-12-07T21:19:44;98197.00;;;21.60
8362;BMP180;4218;48.326;14.304;2022-12-07T21:22:09;98203.00;;;21.60
8362;BMP180;4218;48.326;14.304;2022-12-07T21:24:34;98196.00;;;21.60
8362;BMP180;4218;48.326;14.304;2022-12-07T21:27:02;98194.00;;;21.60
8362;BMP180;4218;48.326;14.304;2022-12-07T21:29:27;98192.00;;;21.60
8362;BMP180;4218;48.326;14.304;2022-12-07T21:31:52;98200.00;;;21.60
8362;BMP180;4218;48.326;14.304;2022-12-07T21:34:18;98200.00;;;21.60
8362;BMP180;4218;48.326;14.304;2022-12-07T21:36:43;98202.00;;;21.60
8362;BMP180;4218;48.326;14.304;2022-12-07T21:39:09;98200.00;;;21.50
8362;BMP180;4218;48.326;14.304;2022-12-07T21:41:35;98201.00;;;21.50
8362;BMP180;4218;48.326;14.304;2022-12-07T21:44:01;98196.00;;;21.50
8362;BMP180;4218;48.326;14.304;2022-12-07T21:46:29;98195.00;;;21.50
8362;BMP180;4218;48.326;14.304;2022-12-07T21:48:57;98203.00;;;21.50
8362;BMP180;4218;48.326;14.304;2022-12-07T21:51:25;98202.00;;;21.50
8362;BMP180;4218;48.326;14.304;2022-12-07T21:53:52;98202.00;;;21.50
8362;BMP180;4218;48.326;14.304;2022-12-07T21:56:21;98201.00;;;21.50
8362;BMP180;4218;48.326;14.304;2022-12-07T21:58:47;98203.00;;;21.50
8362;BMP180;4218;48.326;14.304;2022-12-07T22:01:24;98200.00;;;21.40
8362;BMP180;4218;48.326;14.304;2022-12-07T22:03:50;98194.00;;;21.40
8362;BMP180;4218;48.326;14.304;2022-12-07T22:06:18;98191.00;;;21.40
8362;BMP180;4218;48.326;14.304;2022-12-07T22:08:43;98209.00;;;21.40
8362;BMP180;4218;48.326;14.304;2022-12-07T22:11:10;98201.00;;;21.40
8362;BMP180;4218;48.326;14.304;2022-12-07T22:13:40;98205.00;;;21.40
8362;BMP180;4218;48.326;14.304;2022-12-07T22:16:25;98197.00;;;21.30
8362;BMP180;4218;48.326;14.304;2022-12-07T22:18:53;98195.00;;;21.30
8362;BMP180;4218;48.326;14.304;2022-12-07T22:21:19;98196.00;;;21.30
8362;BMP180;4218;48.326;14.304;2022-12-07T22:23:45;98194.00;;;21.30
8362;BMP180;4218;48.326;14.304;2022-12-07T22:26:13;98189.00;;;21.30
8362;BMP180;4218;48.326;14.304;2022-12-07T22:28:39;98187.00;;;21.30
8362;BMP180;4218;48.326;14.304;2022-12-07T22:31:07;98185.00;;;21.30
8362;BMP180;4218;48.326;14.304;2022-12-07T22:33:33;98191.00;;;21.30
8362;BMP180;4218;48.326;14.304;2022-12-07T22:35:58;98175.00;;;21.20
8362;BMP180;4218;48.326;14.304;2022-12-07T22:38:24;98176.00;;;21.20
8362;BMP180;4218;48.326;14.304;2022-12-07T22:40:49;98180.00;;;21.20
8362;BMP180;4218;48.326;14.304;2022-12-07T22:43:15;98175.00;;;21.20
8362;BMP180;4218;48.326;14.304;2022-12-07T22:45:40;98177.00;;;21.20